createdAt,value
2018-06-09T00:01:42.838Z,48.73
2018-06-09T00:04:11.242Z,52.80
2018-06-09T00:06:39.678Z,53.53
2018-06-09T00:09:08.368Z,48.50
2018-06-09T00:11:36.779Z,47.90
2018-06-09T00:14:05.209Z,47.55
2018-06-09T00:16:33.614Z,50.70
2018-06-09T00:19:02.013Z,50.38
2018-06-09T00:21:30.405Z,48.58
2018-06-09T00:23:58.834Z,48.50
2018-06-09T00:26:27.261Z,42.25
2018-06-09T00:28:55.688Z,44.75
2018-06-09T00:31:24.083Z,41.92
2018-06-09T00:33:52.554Z,46.45
2018-06-09T00:36:20.964Z,42.70
2018-06-09T00:38:49.363Z,40.15
2018-06-09T00:41:17.775Z,49.73
2018-06-09T00:43:46.184Z,46.80
2018-06-09T00:46:14.594Z,43.67
2018-06-09T00:48:42.987Z,41.90
2018-06-09T00:51:11.407Z,43.13
2018-06-09T00:53:39.795Z,45.48
2018-06-09T00:56:19.511Z,42.80
2018-06-09T00:58:47.900Z,40.15
2018-06-09T01:01:16.312Z,45.85
2018-06-09T01:03:44.714Z,40.40
2018-06-09T01:06:13.119Z,42.35
2018-06-09T01:08:41.535Z,41.80
2018-06-09T01:11:09.928Z,39.65
2018-06-09T01:13:38.350Z,37.08
2018-06-09T01:16:06.787Z,43.63
2018-06-09T01:18:35.179Z,42.00
2018-06-09T01:21:03.748Z,41.83
2018-06-09T01:23:32.134Z,39.92
2018-06-09T01:26:00.526Z,37.63
2018-06-09T01:28:28.946Z,41.00
2018-06-09T01:30:57.367Z,41.58
2018-06-09T01:33:25.771Z,46.10
2018-06-09T01:35:54.197Z,37.70
2018-06-09T01:38:22.580Z,38.92
2018-06-09T01:40:50.995Z,32.45
2018-06-09T01:43:19.675Z,31.42
2018-06-09T01:45:48.090Z,31.00
2018-06-09T01:48:16.189Z,25.40
2018-06-09T01:50:44.573Z,31.17
2018-06-09T01:53:12.983Z,29.07
2018-06-09T01:55:41.367Z,25.65
2018-06-09T01:58:09.792Z,31.00
2018-06-09T02:00:38.170Z,31.03
2018-06-09T02:03:06.584Z,28.13
2018-06-09T02:05:34.970Z,30.67
2018-06-09T02:08:03.392Z,30.27
2018-06-09T02:10:31.503Z,27.17
2018-06-09T02:12:59.872Z,31.57
2018-06-09T02:15:28.334Z,29.33
2018-06-09T02:17:56.440Z,29.82
2018-06-09T02:20:24.828Z,26.93
2018-06-09T02:22:53.230Z,28.15
2018-06-09T02:25:21.638Z,28.60
2018-06-09T02:27:50.027Z,26.42
2018-06-09T02:30:18.430Z,26.27
2018-06-09T02:32:46.815Z,24.07
2018-06-09T02:35:15.228Z,23.32
2018-06-09T02:37:43.614Z,24.23
2018-06-09T02:40:12.048Z,24.63
2018-06-09T02:42:40.435Z,23.87
2018-06-09T02:45:08.862Z,28.92
2018-06-09T02:47:37.258Z,22.00
2018-06-09T02:50:05.673Z,25.77
2018-06-09T02:52:34.102Z,20.90
2018-06-09T02:55:02.206Z,21.95
2018-06-09T02:57:31.005Z,23.65
2018-06-09T02:59:59.388Z,21.55
2018-06-09T03:02:27.879Z,23.20
2018-06-09T03:04:56.272Z,22.67
2018-06-09T03:07:24.717Z,20.77
2018-06-09T03:09:53.100Z,22.23
2018-06-09T03:12:21.502Z,21.23
2018-06-09T03:14:49.918Z,27.50
2018-06-09T03:17:17.998Z,22.90
2018-06-09T03:19:46.408Z,22.27
2018-06-09T03:22:14.793Z,23.60
2018-06-09T03:24:43.208Z,20.03
2018-06-09T03:27:11.610Z,24.23
2018-06-09T03:29:39.733Z,19.55
2018-06-09T03:32:08.117Z,21.90
2018-06-09T03:34:36.520Z,21.77
2018-06-09T03:37:04.959Z,23.43
2018-06-09T03:39:33.360Z,22.10
2018-06-09T03:42:01.784Z,22.60
2018-06-09T03:44:30.205Z,22.05
2018-06-09T03:46:58.617Z,20.35
2018-06-09T03:49:27.028Z,21.82
2018-06-09T03:51:55.458Z,22.10
2018-06-09T03:54:23.861Z,21.35
2018-06-09T03:56:52.254Z,21.97
2018-06-09T03:59:20.662Z,17.90
2018-06-09T04:01:49.047Z,19.73
2018-06-09T04:04:17.442Z,17.30
2018-06-09T04:06:45.860Z,19.90
2018-06-09T04:09:14.272Z,22.00
2018-06-09T04:11:42.675Z,23.37
2018-06-09T04:14:11.078Z,21.03
2018-06-09T04:16:39.468Z,25.75
2018-06-09T04:19:07.921Z,25.27
2018-06-09T04:21:36.314Z,23.00
2018-06-09T04:24:04.765Z,24.00
2018-06-09T04:26:33.175Z,25.77
2018-06-09T04:29:01.594Z,24.82
2018-06-09T04:31:30.004Z,20.10
2018-06-09T04:33:58.397Z,23.22
2018-06-09T04:36:26.820Z,18.87
2018-06-09T04:38:55.211Z,18.82
2018-06-09T04:41:23.626Z,19.95
2018-06-09T04:43:52.017Z,17.10
2018-06-09T04:46:20.444Z,19.07
2018-06-09T04:48:48.547Z,16.70
2018-06-09T04:51:16.958Z,17.07
2018-06-09T04:53:45.386Z,17.57
2018-06-09T04:56:13.787Z,14.60
2018-06-09T04:58:42.256Z,15.70
2018-06-09T05:01:10.661Z,16.20
2018-06-09T05:03:39.085Z,16.15
2018-06-09T05:06:07.207Z,12.75
2018-06-09T05:08:35.609Z,13.15
2018-06-09T05:11:03.989Z,13.32
2018-06-09T05:13:32.426Z,15.05
2018-06-09T05:16:00.862Z,14.68
2018-06-09T05:18:29.251Z,17.35
2018-06-09T05:20:57.348Z,13.77
2018-06-09T05:23:25.783Z,15.48
2018-06-09T05:25:54.233Z,13.43
2018-06-09T05:28:22.630Z,18.67
2018-06-09T05:30:51.130Z,14.57
2018-06-09T05:33:19.537Z,13.73
2018-06-09T05:35:47.936Z,16.67
2018-06-09T05:38:16.347Z,15.15
2018-06-09T05:40:44.725Z,16.10
2018-06-09T05:43:13.123Z,16.25
2018-06-09T05:45:41.556Z,14.87
2018-06-09T05:48:09.945Z,12.82
2018-06-09T05:50:38.341Z,12.75
2018-06-09T05:53:06.814Z,15.08
2018-06-09T05:55:35.260Z,20.62
2018-06-09T05:58:03.915Z,15.30
2018-06-09T06:00:32.338Z,17.25
2018-06-09T06:03:00.766Z,14.55
2018-06-09T06:05:29.187Z,17.52
2018-06-09T06:07:57.661Z,15.58
2018-06-09T06:10:26.100Z,14.33
2018-06-09T06:12:55.065Z,20.72
2018-06-09T06:15:23.462Z,22.10
2018-06-09T06:17:51.878Z,15.20
2018-06-09T06:20:19.957Z,17.10
2018-06-09T06:22:48.604Z,17.17
2018-06-09T06:25:17.146Z,16.35
2018-06-09T06:27:45.534Z,15.27
2018-06-09T06:30:13.986Z,15.18
2018-06-09T06:32:42.406Z,17.13
2018-06-09T06:35:10.830Z,25.30
2018-06-09T06:37:38.945Z,16.57
2018-06-09T06:40:07.351Z,15.55
2018-06-09T06:42:35.783Z,14.23
2018-06-09T06:45:04.340Z,15.45
2018-06-09T06:47:32.740Z,15.03
2018-06-09T06:50:01.143Z,16.75
2018-06-09T06:52:29.575Z,20.40
2018-06-09T06:54:57.764Z,18.02
2018-06-09T06:57:26.210Z,18.32
2018-06-09T06:59:54.596Z,17.65
2018-06-09T07:02:23.002Z,17.10
2018-06-09T07:04:51.098Z,13.50
2018-06-09T07:07:19.487Z,17.90
2018-06-09T07:09:48.535Z,17.48
2018-06-09T07:12:16.924Z,13.83
2018-06-09T07:14:45.331Z,16.48
2018-06-09T07:17:13.728Z,13.93
2018-06-09T07:19:42.131Z,16.32
2018-06-09T07:22:10.552Z,17.00
2018-06-09T07:24:38.951Z,14.23
2018-06-09T07:27:07.392Z,14.58
2018-06-09T07:29:35.812Z,14.40
2018-06-09T07:32:04.626Z,14.90
2018-06-09T07:34:33.033Z,18.00
2018-06-09T07:37:01.430Z,16.27
2018-06-09T07:39:29.848Z,17.07
2018-06-09T07:41:58.306Z,16.30
2018-06-09T07:44:26.707Z,17.57
2018-06-09T07:46:55.177Z,14.53
2018-06-09T07:49:23.574Z,16.00
2018-06-09T07:51:51.963Z,16.70
2018-06-09T07:54:20.382Z,18.70
2018-06-09T07:56:48.786Z,21.75
2018-06-09T07:59:17.202Z,20.32
2018-06-09T08:01:45.683Z,23.05
2018-06-09T08:04:14.086Z,19.87
2018-06-09T08:06:47.440Z,22.48
2018-06-09T08:09:15.874Z,24.07
2018-06-09T08:11:43.973Z,20.15
2018-06-09T08:14:12.383Z,20.27
2018-06-09T08:16:40.782Z,23.60
2018-06-09T08:19:09.205Z,22.13
2018-06-09T08:21:37.612Z,19.45
2018-06-09T08:24:06.041Z,22.02
2018-06-09T08:26:34.141Z,23.20
2018-06-09T08:29:02.584Z,23.12
2018-06-09T08:31:31.009Z,23.07
2018-06-09T08:33:59.405Z,19.82
2018-06-09T08:36:27.825Z,20.00
2018-06-09T08:38:55.959Z,18.30
2018-06-09T08:41:24.343Z,19.60
2018-06-09T08:43:52.752Z,16.30
2018-06-09T08:46:21.164Z,15.75
2018-06-09T08:48:49.556Z,17.75
2018-06-09T08:51:17.979Z,17.67
2018-06-09T08:53:46.624Z,19.37
2018-06-09T08:56:15.081Z,18.52
2018-06-09T08:58:43.483Z,21.40
2018-06-09T09:01:11.947Z,15.75
2018-06-09T09:03:40.350Z,18.48
2018-06-09T09:06:08.730Z,17.37
2018-06-09T09:08:37.152Z,20.85
2018-06-09T09:11:05.566Z,22.43
2018-06-09T09:13:33.969Z,17.12
2018-06-09T09:16:02.368Z,21.25
2018-06-09T09:18:30.789Z,23.77
2018-06-09T09:20:58.885Z,18.50
2018-06-09T09:23:27.275Z,21.17
2018-06-09T09:25:55.739Z,18.47
2018-06-09T09:28:23.802Z,17.82
2018-06-09T09:30:52.219Z,18.48
2018-06-09T09:33:20.623Z,17.30
2018-06-09T09:35:49.067Z,20.90
2018-06-09T09:38:17.499Z,17.42
2018-06-09T09:40:45.882Z,21.37
2018-06-09T09:43:14.323Z,23.57
2018-06-09T09:45:42.780Z,20.77
2018-06-09T09:48:11.194Z,21.95
2018-06-09T09:50:39.638Z,19.52
2018-06-09T09:53:08.142Z,20.48
2018-06-09T09:55:36.560Z,17.75
2018-06-09T09:58:04.681Z,23.32
2018-06-09T10:00:38.846Z,18.43
2018-06-09T10:03:07.015Z,19.27
2018-06-09T10:05:35.458Z,20.32
2018-06-09T10:08:03.957Z,18.98
2018-06-09T10:10:32.405Z,20.27
2018-06-09T10:13:00.791Z,21.35
2018-06-09T10:15:29.257Z,20.20
2018-06-09T10:17:57.718Z,18.50
2018-06-09T10:20:26.130Z,19.52
2018-06-09T10:22:54.548Z,20.92
2018-06-09T10:25:22.962Z,21.15
2018-06-09T10:27:51.394Z,21.30
2018-06-09T10:30:19.860Z,21.42
2018-06-09T10:32:48.324Z,21.82
2018-06-09T10:35:16.766Z,21.82
2018-06-09T10:37:44.876Z,20.57
2018-06-09T10:40:13.309Z,20.27
2018-06-09T10:42:41.746Z,20.92
2018-06-09T10:45:10.174Z,20.92
2018-06-09T10:47:38.283Z,20.70
2018-06-09T10:50:06.738Z,22.13
2018-06-09T10:52:35.201Z,23.50
2018-06-09T10:55:03.694Z,21.48
2018-06-09T10:57:32.164Z,22.60
2018-06-09T11:00:00.624Z,20.63
2018-06-09T11:02:29.038Z,21.63
2018-06-09T11:04:57.452Z,19.37
2018-06-09T11:07:25.839Z,18.75
2018-06-09T11:09:54.333Z,25.02
2018-06-09T11:12:22.734Z,19.20
2018-06-09T11:14:51.158Z,20.90
2018-06-09T11:17:20.036Z,19.67
2018-06-09T11:19:48.422Z,21.07
2018-06-09T11:22:16.807Z,19.27
2018-06-09T11:24:45.203Z,19.35
2018-06-09T11:27:13.589Z,24.70
2018-06-09T11:29:41.983Z,21.60
2018-06-09T11:32:10.386Z,19.23
2018-06-09T11:34:38.950Z,19.60
2018-06-09T11:37:07.387Z,20.90
2018-06-09T11:39:35.774Z,22.45
2018-06-09T11:42:04.192Z,23.55
2018-06-09T11:44:32.666Z,23.67
2018-06-09T11:47:01.089Z,21.40
2018-06-09T11:49:29.499Z,21.57
2018-06-09T11:51:57.905Z,19.87
2018-06-09T11:54:26.308Z,21.85
2018-06-09T11:56:54.698Z,22.13
2018-06-09T11:59:22.794Z,22.40
2018-06-09T12:01:51.273Z,24.95
2018-06-09T12:04:19.643Z,20.90
2018-06-09T12:06:48.046Z,25.72
2018-06-09T12:09:16.453Z,21.70
2018-06-09T12:11:44.872Z,22.50
2018-06-09T12:14:13.269Z,22.73
2018-06-09T12:16:41.658Z,19.77
2018-06-09T12:19:10.068Z,21.30
2018-06-09T12:21:38.482Z,21.42
2018-06-09T12:24:06.900Z,21.77
2018-06-09T12:26:35.296Z,22.20
2018-06-09T12:29:03.684Z,21.75
2018-06-09T12:31:32.291Z,22.20
2018-06-09T12:34:00.697Z,23.40
2018-06-09T12:36:29.099Z,21.73
2018-06-09T12:38:57.484Z,19.65
2018-06-09T12:41:25.872Z,21.52
2018-06-09T12:43:54.271Z,22.10
2018-06-09T12:46:22.667Z,22.73
2018-06-09T12:48:51.078Z,23.73
2018-06-09T12:51:19.508Z,19.60
2018-06-09T12:53:47.895Z,20.85
2018-06-09T12:56:16.681Z,21.33
2018-06-09T12:58:45.446Z,21.37
2018-06-09T13:01:13.845Z,23.75
2018-06-09T13:03:42.262Z,26.07
2018-06-09T13:06:10.654Z,22.27
2018-06-09T13:08:39.035Z,21.57
2018-06-09T13:11:07.443Z,19.25
2018-06-09T13:13:35.860Z,19.65
2018-06-09T13:16:04.280Z,21.77
2018-06-09T13:18:32.678Z,18.45
2018-06-09T13:21:01.095Z,16.30
2018-06-09T13:23:29.496Z,18.57
2018-06-09T13:25:57.903Z,16.80
2018-06-09T13:28:26.306Z,26.85
2018-06-09T13:30:54.709Z,26.95
2018-06-09T13:33:22.842Z,20.02
2018-06-09T13:35:51.236Z,17.98
2018-06-09T13:38:19.631Z,18.00
2018-06-09T13:40:48.034Z,20.65
2018-06-09T13:43:16.425Z,20.62
2018-06-09T13:45:44.833Z,21.68
2018-06-09T13:48:13.253Z,21.20
2018-06-09T13:50:41.656Z,23.18
2018-06-09T13:53:10.049Z,23.12
2018-06-09T13:55:38.470Z,21.20
2018-06-09T13:58:06.865Z,17.20
2018-06-09T14:00:35.242Z,16.52
2018-06-09T14:03:03.662Z,18.60
2018-06-09T14:05:32.068Z,19.65
2018-06-09T14:08:00.479Z,18.15
2018-06-09T14:10:28.866Z,19.45
2018-06-09T14:12:57.261Z,14.57
2018-06-09T14:15:25.668Z,21.33
2018-06-09T14:17:54.055Z,17.37
2018-06-09T14:20:22.460Z,18.75
2018-06-09T14:22:50.850Z,19.02
2018-06-09T14:25:19.267Z,15.80
2018-06-09T14:27:47.674Z,19.57
2018-06-09T14:30:16.087Z,17.33
2018-06-09T14:32:44.511Z,18.82
2018-06-09T14:35:12.912Z,20.27
2018-06-09T14:37:41.294Z,19.20
2018-06-09T14:40:10.173Z,24.00
2018-06-09T14:42:38.579Z,15.38
2018-06-09T14:45:06.975Z,23.30
2018-06-09T14:47:35.383Z,15.60
2018-06-09T14:50:03.954Z,16.30
2018-06-09T14:52:32.057Z,21.02
2018-06-09T14:55:00.442Z,18.30
2018-06-09T14:57:28.856Z,19.67
2018-06-09T14:59:57.250Z,18.90
2018-06-09T15:02:25.663Z,18.42
2018-06-09T15:04:54.038Z,18.85
2018-06-09T15:07:22.431Z,18.80
2018-06-09T15:09:50.924Z,17.70
2018-06-09T15:12:19.309Z,20.72
2018-06-09T15:14:47.705Z,20.92
2018-06-09T15:17:16.119Z,20.35
2018-06-09T15:19:44.229Z,15.43
2018-06-09T15:22:12.615Z,19.67
2018-06-09T15:24:41.022Z,20.62
2018-06-09T15:27:09.407Z,18.12
2018-06-09T15:29:37.831Z,17.77
2018-06-09T15:32:06.267Z,20.82
2018-06-09T15:34:34.669Z,17.65
2018-06-09T15:37:03.219Z,22.27
2018-06-09T15:39:31.621Z,18.17
2018-06-09T15:42:00.010Z,19.75
2018-06-09T15:44:28.103Z,19.98
2018-06-09T15:46:56.511Z,22.42
2018-06-09T15:49:24.910Z,20.08
2018-06-09T15:51:53.309Z,21.10
2018-06-09T15:54:21.414Z,20.62
2018-06-09T15:56:49.820Z,21.73
2018-06-09T15:59:18.221Z,23.25
2018-06-09T16:01:46.614Z,21.30
2018-06-09T16:04:15.006Z,20.27
2018-06-09T16:06:43.403Z,25.27
2018-06-09T16:09:11.901Z,24.70
2018-06-09T16:11:40.228Z,25.32
2018-06-09T16:14:08.620Z,25.25
2018-06-09T16:16:36.713Z,15.70
2018-06-09T16:19:05.127Z,18.67
2018-06-09T16:21:33.528Z,18.90
2018-06-09T16:24:01.923Z,20.80
2018-06-09T16:26:30.044Z,20.47
2018-06-09T16:28:58.454Z,17.07
2018-06-09T16:31:26.867Z,19.87
2018-06-09T16:33:55.273Z,16.80
2018-06-09T16:36:23.672Z,18.15
2018-06-09T16:38:52.135Z,23.73
2018-06-09T16:41:20.554Z,18.15
2018-06-09T16:43:48.957Z,21.97
2018-06-09T16:46:17.075Z,20.97
2018-06-09T16:48:45.507Z,20.17
2018-06-09T16:51:13.618Z,20.90
2018-06-09T16:53:42.036Z,18.02
2018-06-09T16:56:10.449Z,17.57
2018-06-09T16:58:38.867Z,18.23
2018-06-09T17:01:07.387Z,19.67
2018-06-09T17:03:35.812Z,18.50
2018-06-09T17:06:04.219Z,16.02
2018-06-09T17:08:32.614Z,19.67
2018-06-09T17:11:00.998Z,21.10
2018-06-09T17:13:29.434Z,14.93
2018-06-09T17:15:57.827Z,19.35
2018-06-09T17:18:26.262Z,17.80
2018-06-09T17:20:54.378Z,17.25
2018-06-09T17:23:22.782Z,18.27
2018-06-09T17:25:51.206Z,17.95
2018-06-09T17:28:19.605Z,20.45
2018-06-09T17:30:48.021Z,18.65
2018-06-09T17:33:16.406Z,20.50
2018-06-09T17:35:44.803Z,19.95
2018-06-09T17:38:12.894Z,19.40
2018-06-09T17:40:41.298Z,19.37
2018-06-09T17:43:09.927Z,21.85
2018-06-09T17:45:38.366Z,20.27
2018-06-09T17:48:06.803Z,20.92
2018-06-09T17:50:34.923Z,24.20
2018-06-09T17:53:03.369Z,20.67
2018-06-09T17:55:31.826Z,22.67
2018-06-09T17:58:00.220Z,21.82
2018-06-09T18:00:28.636Z,20.65
2018-06-09T18:02:57.039Z,17.50
2018-06-09T18:05:25.489Z,21.20
2018-06-09T18:07:53.919Z,22.37
2018-06-09T18:10:22.367Z,17.57
2018-06-09T18:12:50.808Z,20.97
2018-06-09T18:15:19.328Z,19.40
2018-06-09T18:17:47.713Z,19.45
2018-06-09T18:20:16.103Z,18.37
2018-06-09T18:22:44.513Z,17.75
2018-06-09T18:25:12.929Z,22.35
2018-06-09T18:27:41.330Z,18.57
2018-06-09T18:30:09.758Z,20.95
2018-06-09T18:32:38.178Z,23.12
2018-06-09T18:35:06.972Z,21.42
2018-06-09T18:37:35.367Z,21.60
2018-06-09T18:40:03.847Z,20.30
2018-06-09T18:42:32.239Z,23.45
2018-06-09T18:45:00.673Z,23.10
2018-06-09T18:47:29.078Z,21.70
2018-06-09T18:49:57.502Z,26.55
2018-06-09T18:52:25.930Z,22.45
2018-06-09T18:54:54.355Z,25.60
2018-06-09T18:57:22.459Z,23.35
2018-06-09T18:59:50.891Z,24.12
2018-06-09T19:02:19.287Z,27.27
2018-06-09T19:04:47.401Z,25.48
2018-06-09T19:07:15.829Z,23.05
2018-06-09T19:09:44.229Z,23.50
2018-06-09T19:12:12.750Z,28.60
2018-06-09T19:14:41.154Z,53.68
2018-06-09T19:17:09.583Z,27.95
2018-06-09T19:19:37.978Z,24.10
2018-06-09T19:22:06.567Z,35.20
2018-06-09T19:24:34.902Z,27.87
2018-06-09T19:27:03.006Z,33.23
2018-06-09T19:29:31.408Z,24.43
2018-06-09T19:32:00.268Z,27.02
2018-06-09T19:34:28.677Z,27.15
2018-06-09T19:36:57.142Z,25.43
2018-06-09T19:39:25.579Z,27.93
2018-06-09T19:41:53.689Z,27.98
2018-06-09T19:44:22.116Z,25.43
2018-06-09T19:46:50.533Z,27.58
2018-06-09T19:49:18.974Z,28.15
2018-06-09T19:51:47.378Z,33.88
2018-06-09T19:54:15.804Z,33.50
2018-06-09T19:56:44.226Z,28.75
2018-06-09T19:59:12.345Z,26.23
2018-06-09T20:01:40.766Z,25.32
2018-06-09T20:04:09.152Z,27.50
2018-06-09T20:06:37.258Z,27.20
2018-06-09T20:09:07.562Z,29.52
2018-06-09T20:11:36.032Z,30.70
2018-06-09T20:14:04.463Z,31.83
2018-06-09T20:16:32.880Z,28.57
2018-06-09T20:19:00.969Z,31.23
2018-06-09T20:21:29.101Z,33.88
2018-06-09T20:23:57.512Z,29.40
2018-06-09T20:26:25.921Z,27.87
2018-06-09T20:28:54.351Z,28.07
2018-06-09T20:31:22.811Z,30.48
2018-06-09T20:33:51.254Z,29.67
2018-06-09T20:36:19.680Z,31.10
2018-06-09T20:38:48.138Z,26.80
2018-06-09T20:41:16.593Z,26.80
2018-06-09T20:43:44.983Z,23.40
2018-06-09T20:46:13.426Z,21.97
2018-06-09T20:48:41.541Z,23.77
2018-06-09T20:51:09.944Z,23.75
2018-06-09T20:53:38.389Z,16.85
2018-06-09T20:56:06.826Z,16.85
2018-06-09T20:58:39.636Z,19.30
2018-06-09T21:01:08.260Z,15.93
2018-06-09T21:03:36.846Z,12.75
2018-06-09T21:06:05.497Z,12.47
2018-06-09T21:08:33.892Z,12.80
2018-06-09T21:11:02.324Z,13.28
2018-06-09T21:13:30.441Z,12.85
2018-06-09T21:15:58.842Z,14.15
2018-06-09T21:18:27.226Z,9.10
2018-06-09T21:20:55.642Z,10.87
2018-06-09T21:23:24.067Z,10.23
2018-06-09T21:25:52.480Z,9.50
2018-06-09T21:28:24.890Z,11.20
2018-06-09T21:30:58.838Z,9.68
2018-06-09T21:33:44.067Z,8.55
2018-06-09T21:36:13.783Z,7.60
2018-06-09T21:38:47.948Z,7.70
2018-06-09T21:41:21.677Z,8.20
2018-06-09T21:43:52.856Z,7.78
2018-06-09T21:46:26.748Z,10.00
2018-06-09T21:48:54.837Z,8.45
2018-06-09T21:51:23.242Z,7.17
2018-06-09T21:53:51.682Z,5.95
2018-06-09T21:56:20.087Z,8.58
2018-06-09T21:58:48.465Z,7.47
2018-06-09T22:01:16.869Z,6.08
2018-06-09T22:03:45.298Z,8.88
2018-06-09T22:06:13.703Z,7.40
2018-06-09T22:08:42.108Z,8.70
2018-06-09T22:11:10.544Z,7.78
2018-06-09T22:13:38.950Z,5.97
2018-06-09T22:16:07.423Z,8.35
2018-06-09T22:18:35.838Z,9.33
2018-06-09T22:21:04.248Z,7.20
2018-06-09T22:23:32.353Z,7.00
2018-06-09T22:26:00.874Z,6.77
2018-06-09T22:28:29.258Z,7.90
2018-06-09T22:30:57.706Z,8.07
2018-06-09T22:33:26.179Z,10.18
2018-06-09T22:35:54.573Z,8.85
2018-06-09T22:38:22.967Z,7.03
2018-06-09T22:40:51.348Z,7.90
2018-06-09T22:43:19.742Z,8.68
2018-06-09T22:45:48.139Z,7.25
2018-06-09T22:48:16.554Z,10.98
2018-06-09T22:50:44.958Z,9.13
2018-06-09T22:53:13.344Z,8.50
2018-06-09T22:55:41.742Z,8.28
2018-06-09T22:58:09.824Z,7.90
2018-06-09T23:00:42.259Z,8.30
2018-06-09T23:03:10.644Z,7.83
2018-06-09T23:05:39.081Z,9.63
2018-06-09T23:08:07.462Z,7.47
2018-06-09T23:10:35.882Z,8.30
2018-06-09T23:13:04.319Z,9.15
2018-06-09T23:15:32.777Z,10.40
2018-06-09T23:18:00.917Z,10.55
2018-06-09T23:20:29.306Z,7.97
2018-06-09T23:22:57.684Z,10.17
2018-06-09T23:25:26.106Z,7.70
2018-06-09T23:27:54.506Z,8.10
2018-06-09T23:30:22.909Z,8.70
2018-06-09T23:32:51.324Z,9.07
2018-06-09T23:35:19.715Z,9.90
2018-06-09T23:37:48.109Z,8.50
2018-06-09T23:40:16.508Z,11.10
2018-06-09T23:42:44.921Z,12.00
2018-06-09T23:45:13.317Z,11.80
2018-06-09T23:47:41.448Z,12.47
2018-06-09T23:50:09.839Z,13.10
2018-06-09T23:52:38.266Z,14.80
2018-06-09T23:55:07.092Z,13.28
2018-06-09T23:57:35.487Z,11.53
